Portada
METAR-TAF:

METAR-TAF

Aeroports :

Kwajalein, Illes Marshall

latitud: 08-43N, longitud: 167-44E, altitud: 3 m

Observació

L'informe es va fer fa 22 minuts, a les 11:40 UTC
Vent 14 kt del Nord-Est
Temperatura 29°C
Humitat 79%
Pressió 1014 hPa
Visibilitat: 16.1 km
Núvols disperses a una alçada de 2200 ft

METAR: PKWA 251140Z AUTO 05014KT 10SM SCT022 29/25 A2993 RMK AO2 T02850245

Hora: 00:02 (12:02 UTC)

Pronòstic

L'informe es va fer fa 34 minuts, a les 11:28 UTC
Pronòstic vàlid del 25 a les 12 UTC al 26 a les 12 UTC
Vent 15 kt del Est/Nord-Est
Visibilitat: 10 km
Núvols disperses a una alçada de 2200 ft
xàfecs en les proximitats

TAF: PKWA 251128Z 2512/2612 07015KT P6SM VCSH SCT022

Observacions i pronòstics meteorològics de més de 4000 aeroports (METAR i TAF).

Les estacions disponibles són els punts grocs i vermells al mapa.

Posi el ratolí al punt desitjat per veure el nom de l'estació.

Feu clic per veure les observacions i els pronòstics meteorològics.

Per canviar el mapa: feu clic els botons verds amb una creu de color negre per apropar; al botó verd amb un guió per allunyar la imatge; o en les fletxes verdes per a mapes adjacents.


METAR-TAF: